sensor_id;sensor_type;location;lat;lon;timestamp;pressure;altitude;pressure_sealevel;temperature;humidity
2000;BME280;1001;48.87406500;9.59633600;2022-10-31T00:00:53;95563.25;;;16.45;82.54
2000;BME280;1001;48.87406500;9.59633600;2022-10-31T00:03:19;95566.59;;;16.35;83.04
2000;BME280;1001;48.87406500;9.59633600;2022-10-31T00:05:48;95565.22;;;16.23;83.73
2000;BME280;1001;48.87406500;9.59633600;2022-10-31T00:08:15;95562.69;;;16.06;84.68
2000;BME280;1001;48.87406500;9.59633600;2022-10-31T00:10:43;95567.38;;;15.99;86.16
2000;BME280;1001;48.87406500;9.59633600;2022-10-31T00:13:12;95570.22;;;15.93;87.09
2000;BME280;1001;48.87406500;9.59633600;2022-10-31T00:15:40;95567.63;;;15.98;87.74
2000;BME280;1001;48.87406500;9.59633600;2022-10-31T00:18:08;95562.88;;;16.00;87.56
2000;BME280;1001;48.87406500;9.59633600;2022-10-31T00:20:35;95565.03;;;16.03;87.66
2000;BME280;1001;48.87406500;9.59633600;2022-10-31T00:23:03;95568.72;;;16.02;89.40
2000;BME280;1001;48.87406500;9.59633600;2022-10-31T00:25:33;95564.72;;;15.94;89.94
2000;BME280;1001;48.87406500;9.59633600;2022-10-31T00:28:00;95570.16;;;15.88;90.65
2000;BME280;1001;48.87406500;9.59633600;2022-10-31T00:30:28;95566.22;;;15.85;91.44
2000;BME280;1001;48.87406500;9.59633600;2022-10-31T00:32:54;95568.34;;;15.61;91.36
2000;BME280;1001;48.87406500;9.59633600;2022-10-31T00:35:21;95562.91;;;15.46;91.70
2000;BME280;1001;48.87406500;9.59633600;2022-10-31T00:37:48;95568.09;;;15.41;91.88
2000;BME280;1001;48.87406500;9.59633600;2022-10-31T00:40:14;95567.63;;;15.44;92.70
2000;BME280;1001;48.87406500;9.59633600;2022-10-31T00:42:41;95564.50;;;15.47;91.76
2000;BME280;1001;48.87406500;9.59633600;2022-10-31T00:45:08;95572.66;;;15.46;91.97
2000;BME280;1001;48.87406500;9.59633600;2022-10-31T00:47:37;95568.78;;;15.32;92.93
2000;BME280;1001;48.87406500;9.59633600;2022-10-31T00:50:04;95556.81;;;15.24;93.44
2000;BME280;1001;48.87406500;9.59633600;2022-10-31T00:52:31;95561.06;;;15.25;93.97
2000;BME280;1001;48.87406500;9.59633600;2022-10-31T00:54:58;95558.16;;;15.27;94.13
2000;BME280;1001;48.87406500;9.59633600;2022-10-31T00:57:24;95558.16;;;15.27;94.42
2000;BME280;1001;48.87406500;9.59633600;2022-10-31T00:59:51;95553.97;;;15.26;94.69
2000;BME280;1001;48.87406500;9.59633600;2022-10-31T01:02:18;95553.63;;;15.22;95.07
2000;BME280;1001;48.87406500;9.59633600;2022-10-31T01:04:45;95555.53;;;15.27;95.39
2000;BME280;1001;48.87406500;9.59633600;2022-10-31T01:07:12;95558.28;;;15.37;94.01
2000;BME280;1001;48.87406500;9.59633600;2022-10-31T01:09:39;95557.81;;;15.40;92.93
2000;BME280;1001;48.87406500;9.59633600;2022-10-31T01:12:06;95550.19;;;15.43;92.11
2000;BME280;1001;48.87406500;9.59633600;2022-10-31T01:14:33;95560.97;;;15.42;91.89
2000;BME280;1001;48.87406500;9.59633600;2022-10-31T01:16:59;95550.75;;;15.45;91.84
2000;BME280;1001;48.87406500;9.59633600;2022-10-31T01:19:26;95555.94;;;15.40;92.33
2000;BME280;1001;48.87406500;9.59633600;2022-10-31T01:21:55;95552.91;;;15.48;92.32
2000;BME280;1001;48.87406500;9.59633600;2022-10-31T01:24:22;95548.13;;;15.45;92.59
2000;BME280;1001;48.87406500;9.59633600;2022-10-31T01:26:48;95545.31;;;15.52;90.88
2000;BME280;1001;48.87406500;9.59633600;2022-10-31T01:29:15;95548.19;;;15.50;90.21
2000;BME280;1001;48.87406500;9.59633600;2022-10-31T01:31:42;95547.44;;;15.55;90.04
2000;BME280;1001;48.87406500;9.59633600;2022-10-31T01:34:13;95541.41;;;15.59;89.39
2000;BME280;1001;48.87406500;9.59633600;2022-10-31T01:36:40;95540.97;;;15.68;89.32
2000;BME280;1001;48.87406500;9.59633600;2022-10-31T01:39:10;95546.94;;;15.58;89.26
2000;BME280;1001;48.87406500;9.59633600;2022-10-31T01:41:40;95541.56;;;15.48;89.82
2000;BME280;1001;48.87406500;9.59633600;2022-10-31T01:47:11;95536.47;;;15.41;90.02
2000;BME280;1001;48.87406500;9.59633600;2022-10-31T01:49:43;95539.84;;;15.15;91.02
2000;BME280;1001;48.87406500;9.59633600;2022-10-31T01:52:14;95535.53;;;15.04;91.62
2000;BME280;1001;48.87406500;9.59633600;2022-10-31T01:54:48;95534.47;;;14.83;93.31
2000;BME280;1001;48.87406500;9.59633600;2022-10-31T01:57:18;95537.03;;;14.78;94.05
2000;BME280;1001;48.87406500;9.59633600;2022-10-31T01:59:49;95530.84;;;14.68;94.15
2000;BME280;1001;48.87406500;9.59633600;2022-10-31T02:02:18;95539.28;;;14.70;94.72
2000;BME280;1001;48.87406500;9.59633600;2022-10-31T02:04:46;95539.84;;;14.72;94.45
2000;BME280;1001;48.87406500;9.59633600;2022-10-31T02:07:16;95540.72;;;14.77;94.56
2000;BME280;1001;48.87406500;9.59633600;2022-10-31T02:09:47;95541.19;;;14.96;93.57
2000;BME280;1001;48.87406500;9.59633600;2022-10-31T02:12:16;95539.06;;;14.93;92.77
2000;BME280;1001;48.87406500;9.59633600;2022-10-31T02:14:44;95539.97;;;14.82;92.04
2000;BME280;1001;48.87406500;9.59633600;2022-10-31T02:17:10;95532.41;;;14.85;90.87
2000;BME280;1001;48.87406500;9.59633600;2022-10-31T02:19:41;95536.38;;;14.88;89.40
2000;BME280;1001;48.87406500;9.59633600;2022-10-31T02:22:18;95535.94;;;14.96;87.61
2000;BME280;1001;48.87406500;9.59633600;2022-10-31T02:25:08;95535.75;;;15.02;86.11
2000;BME280;1001;48.87406500;9.59633600;2022-10-31T02:30:41;95537.88;;;14.84;86.59
2000;BME280;1001;48.87406500;9.59633600;2022-10-31T02:33:20;95537.13;;;14.83;87.49
2000;BME280;1001;48.87406500;9.59633600;2022-10-31T02:35:57;95535.38;;;14.94;87.73
2000;BME280;1001;48.87406500;9.59633600;2022-10-31T02:38:36;95529.31;;;14.93;87.50
2000;BME280;1001;48.87406500;9.59633600;2022-10-31T02:41:11;95523.44;;;15.08;88.30
2000;BME280;1001;48.87406500;9.59633600;2022-10-31T02:43:47;95526.56;;;15.05;88.32
2000;BME280;1001;48.87406500;9.59633600;2022-10-31T02:46:24;95526.69;;;15.15;87.78
2000;BME280;1001;48.87406500;9.59633600;2022-10-31T02:48:55;95525.72;;;15.21;88.68
2000;BME280;1001;48.87406500;9.59633600;2022-10-31T02:51:24;95527.00;;;15.19;88.18
2000;BME280;1001;48.87406500;9.59633600;2022-10-31T02:53:50;95525.88;;;15.15;88.03
2000;BME280;1001;48.87406500;9.59633600;2022-10-31T02:56:19;95513.16;;;15.07;88.18
2000;BME280;1001;48.87406500;9.59633600;2022-10-31T02:58:49;95525.59;;;14.89;88.26
2000;BME280;1001;48.87406500;9.59633600;2022-10-31T03:01:31;95531.53;;;14.80;88.08
2000;BME280;1001;48.87406500;9.59633600;2022-10-31T03:04:23;95526.94;;;14.70;88.17
2000;BME280;1001;48.87406500;9.59633600;2022-10-31T03:06:57;95531.94;;;14.72;87.44
2000;BME280;1001;48.87406500;9.59633600;2022-10-31T03:09:34;95529.00;;;14.68;87.23
2000;BME280;1001;48.87406500;9.59633600;2022-10-31T03:12:07;95527.47;;;14.72;88.05
2000;BME280;1001;48.87406500;9.59633600;2022-10-31T03:14:40;95530.97;;;14.78;89.30
2000;BME280;1001;48.87406500;9.59633600;2022-10-31T03:17:14;95530.78;;;14.84;90.43
2000;BME280;1001;48.87406500;9.59633600;2022-10-31T03:19:46;95527.53;;;14.77;90.18
2000;BME280;1001;48.87406500;9.59633600;2022-10-31T03:22:16;95527.00;;;14.75;90.09
2000;BME280;1001;48.87406500;9.59633600;2022-10-31T03:24:45;95524.84;;;14.72;89.71
2000;BME280;1001;48.87406500;9.59633600;2022-10-31T03:27:15;95529.16;;;14.78;89.89
2000;BME280;1001;48.87406500;9.59633600;2022-10-31T03:29:43;95525.47;;;14.79;89.33
2000;BME280;1001;48.87406500;9.59633600;2022-10-31T03:32:14;95526.81;;;14.82;88.82
2000;BME280;1001;48.87406500;9.59633600;2022-10-31T03:34:45;95526.19;;;14.75;89.38
2000;BME280;1001;48.87406500;9.59633600;2022-10-31T03:37:14;95531.94;;;14.72;89.80
2000;BME280;1001;48.87406500;9.59633600;2022-10-31T03:39:44;95524.47;;;14.64;89.74
2000;BME280;1001;48.87406500;9.59633600;2022-10-31T03:42:15;95528.47;;;14.88;88.05
2000;BME280;1001;48.87406500;9.59633600;2022-10-31T03:44:46;95524.44;;;14.80;88.29
2000;BME280;1001;48.87406500;9.59633600;2022-10-31T03:47:16;95521.41;;;14.72;87.96
2000;BME280;1001;48.87406500;9.59633600;2022-10-31T03:49:44;95524.41;;;14.59;88.45
2000;BME280;1001;48.87406500;9.59633600;2022-10-31T03:52:15;95520.59;;;14.50;89.26
2000;BME280;1001;48.87406500;9.59633600;2022-10-31T03:54:46;95526.34;;;14.47;89.79
2000;BME280;1001;48.87406500;9.59633600;2022-10-31T03:57:19;95522.28;;;14.39;89.51
2000;BME280;1001;48.87406500;9.59633600;2022-10-31T03:59:51;95531.59;;;14.47;88.77
2000;BME280;1001;48.87406500;9.59633600;2022-10-31T04:02:22;95521.53;;;14.60;87.96
2000;BME280;1001;48.87406500;9.59633600;2022-10-31T04:04:53;95514.91;;;14.58;87.97
2000;BME280;1001;48.87406500;9.59633600;2022-10-31T04:07:21;95519.44;;;14.41;88.93
2000;BME280;1001;48.87406500;9.59633600;2022-10-31T04:09:52;95514.25;;;14.29;89.38
2000;BME280;1001;48.87406500;9.59633600;2022-10-31T04:12:20;95517.34;;;14.26;89.80
2000;BME280;1001;48.87406500;9.59633600;2022-10-31T04:14:49;95512.88;;;14.26;90.12
2000;BME280;1001;48.87406500;9.59633600;2022-10-31T04:17:18;95515.97;;;14.23;90.14
2000;BME280;1001;48.87406500;9.59633600;2022-10-31T04:19:47;95514.06;;;14.19;90.50
2000;BME280;1001;48.87406500;9.59633600;2022-10-31T04:22:15;95503.22;;;14.15;90.64
2000;BME280;1001;48.87406500;9.59633600;2022-10-31T04:24:42;95504.41;;;14.08;90.41
2000;BME280;1001;48.87406500;9.59633600;2022-10-31T04:27:08;95503.31;;;14.04;90.17
2000;BME280;1001;48.87406500;9.59633600;2022-10-31T04:29:35;95506.19;;;14.02;90.70
2000;BME280;1001;48.87406500;9.59633600;2022-10-31T04:32:02;95504.94;;;14.05;90.62
2000;BME280;1001;48.87406500;9.59633600;2022-10-31T04:34:28;95512.31;;;14.08;90.97
2000;BME280;1001;48.87406500;9.59633600;2022-10-31T04:36:55;95507.38;;;14.11;89.85
2000;BME280;1001;48.87406500;9.59633600;2022-10-31T04:39:23;95509.84;;;14.18;89.09
2000;BME280;1001;48.87406500;9.59633600;2022-10-31T04:41:49;95510.31;;;14.31;88.51
2000;BME280;1001;48.87406500;9.59633600;2022-10-31T04:44:16;95516.78;;;14.41;87.58
2000;BME280;1001;48.87406500;9.59633600;2022-10-31T04:46:43;95510.47;;;14.42;87.00
2000;BME280;1001;48.87406500;9.59633600;2022-10-31T04:49:09;95501.78;;;14.41;86.68
2000;BME280;1001;48.87406500;9.59633600;2022-10-31T04:51:36;95503.31;;;14.37;86.37
2000;BME280;1001;48.87406500;9.59633600;2022-10-31T04:54:03;95505.53;;;14.28;86.23
2000;BME280;1001;48.87406500;9.59633600;2022-10-31T04:56:31;95494.06;;;14.18;86.84
2000;BME280;1001;48.87406500;9.59633600;2022-10-31T04:58:57;95493.50;;;14.16;86.40
2000;BME280;1001;48.87406500;9.59633600;2022-10-31T05:01:24;95488.44;;;14.09;86.24
2000;BME280;1001;48.87406500;9.59633600;2022-10-31T05:03:51;95487.47;;;13.99;86.00
2000;BME280;1001;48.87406500;9.59633600;2022-10-31T05:06:17;95486.28;;;13.90;86.49
2000;BME280;1001;48.87406500;9.59633600;2022-10-31T05:08:44;95485.63;;;13.83;86.39
2000;BME280;1001;48.87406500;9.59633600;2022-10-31T05:11:10;95476.88;;;13.77;86.24
2000;BME280;1001;48.87406500;9.59633600;2022-10-31T05:13:38;95478.94;;;13.75;86.54
2000;BME280;1001;48.87406500;9.59633600;2022-10-31T05:16:05;95477.53;;;13.68;87.24
2000;BME280;1001;48.87406500;9.59633600;2022-10-31T05:18:32;95466.84;;;13.57;88.22
2000;BME280;1001;48.87406500;9.59633600;2022-10-31T05:20:59;95466.19;;;13.50;88.96
2000;BME280;1001;48.87406500;9.59633600;2022-10-31T05:23:25;95463.25;;;13.47;89.22
2000;BME280;1001;48.87406500;9.59633600;2022-10-31T05:25:52;95456.53;;;13.39;89.45
2000;BME280;1001;48.87406500;9.59633600;2022-10-31T05:28:18;95454.72;;;13.40;89.23
2000;BME280;1001;48.87406500;9.59633600;2022-10-31T05:30:47;95453.69;;;13.41;89.14
2000;BME280;1001;48.87406500;9.59633600;2022-10-31T05:33:13;95466.03;;;13.40;88.93
2000;BME280;1001;48.87406500;9.59633600;2022-10-31T05:35:40;95458.75;;;13.31;89.65
2000;BME280;1001;48.87406500;9.59633600;2022-10-31T05:38:06;95453.41;;;13.26;90.59
2000;BME280;1001;48.87406500;9.59633600;2022-10-31T05:40:33;95457.22;;;13.18;90.92
2000;BME280;1001;48.87406500;9.59633600;2022-10-31T05:43:00;95454.38;;;13.20;91.41
2000;BME280;1001;48.87406500;9.59633600;2022-10-31T05:45:26;95457.13;;;13.13;92.56
2000;BME280;1001;48.87406500;9.59633600;2022-10-31T05:47:56;95451.19;;;13.18;92.97
2000;BME280;1001;48.87406500;9.59633600;2022-10-31T05:50:24;95449.94;;;13.20;92.88
2000;BME280;1001;48.87406500;9.59633600;2022-10-31T05:52:55;95449.50;;;13.12;92.87
2000;BME280;1001;48.87406500;9.59633600;2022-10-31T05:55:22;95455.31;;;13.14;93.21
2000;BME280;1001;48.87406500;9.59633600;2022-10-31T05:57:49;95458.41;;;13.11;93.02
2000;BME280;1001;48.87406500;9.59633600;2022-10-31T06:00:17;95447.34;;;13.09;92.87
2000;BME280;1001;48.87406500;9.59633600;2022-10-31T06:02:44;95447.91;;;13.11;93.03
2000;BME280;1001;48.87406500;9.59633600;2022-10-31T06:05:12;95450.75;;;13.09;94.09
2000;BME280;1001;48.87406500;9.59633600;2022-10-31T06:07:39;95451.88;;;13.13;94.75
2000;BME280;1001;48.87406500;9.59633600;2022-10-31T06:10:07;95450.16;;;13.19;94.24
2000;BME280;1001;48.87406500;9.59633600;2022-10-31T06:12:34;95446.72;;;13.18;94.35
2000;BME280;1001;48.87406500;9.59633600;2022-10-31T06:15:04;95451.19;;;13.18;94.03
2000;BME280;1001;48.87406500;9.59633600;2022-10-31T06:17:31;95457.56;;;13.22;93.78
2000;BME280;1001;48.87406500;9.59633600;2022-10-31T06:19:57;95456.59;;;13.28;94.06
2000;BME280;1001;48.87406500;9.59633600;2022-10-31T06:22:25;95456.47;;;13.34;94.26
2000;BME280;1001;48.87406500;9.59633600;2022-10-31T06:24:52;95450.34;;;13.45;93.25
2000;BME280;1001;48.87406500;9.59633600;2022-10-31T06:27:19;95457.19;;;13.46;93.06
2000;BME280;1001;48.87406500;9.59633600;2022-10-31T06:29:45;95449.78;;;13.43;93.38
2000;BME280;1001;48.87406500;9.59633600;2022-10-31T06:32:13;95456.16;;;13.47;93.28
2000;BME280;1001;48.87406500;9.59633600;2022-10-31T06:34:41;95454.34;;;13.48;92.93
2000;BME280;1001;48.87406500;9.59633600;2022-10-31T06:37:08;95452.19;;;13.45;92.94
2000;BME280;1001;48.87406500;9.59633600;2022-10-31T06:39:37;95449.53;;;13.45;93.18
2000;BME280;1001;48.87406500;9.59633600;2022-10-31T06:42:04;95451.63;;;13.43;93.44
2000;BME280;1001;48.87406500;9.59633600;2022-10-31T06:44:31;95459.50;;;13.43;93.27
2000;BME280;1001;48.87406500;9.59633600;2022-10-31T06:46:57;95455.06;;;13.43;93.25
2000;BME280;1001;48.87406500;9.59633600;2022-10-31T06:49:24;95450.34;;;13.45;93.01
2000;BME280;1001;48.87406500;9.59633600;2022-10-31T06:51:51;95452.50;;;13.48;92.95
2000;BME280;1001;48.87406500;9.59633600;2022-10-31T06:54:17;95449.94;;;13.53;92.76
2000;BME280;1001;48.87406500;9.59633600;2022-10-31T06:56:46;95454.09;;;13.66;92.20
2000;BME280;1001;48.87406500;9.59633600;2022-10-31T06:59:13;95450.28;;;13.74;91.15
2000;BME280;1001;48.87406500;9.59633600;2022-10-31T07:01:40;95461.25;;;13.87;89.92
2000;BME280;1001;48.87406500;9.59633600;2022-10-31T07:04:07;95460.88;;;13.95;89.68
2000;BME280;1001;48.87406500;9.59633600;2022-10-31T07:06:34;95459.41;;;14.04;89.16
2000;BME280;1001;48.87406500;9.59633600;2022-10-31T07:09:01;95457.97;;;14.13;88.97
2000;BME280;1001;48.87406500;9.59633600;2022-10-31T07:11:27;95460.81;;;14.45;86.21
2000;BME280;1001;48.87406500;9.59633600;2022-10-31T07:13:55;95457.63;;;14.65;84.75
2000;BME280;1001;48.87406500;9.59633600;2022-10-31T07:16:22;95459.41;;;14.81;84.40
2000;BME280;1001;48.87406500;9.59633600;2022-10-31T07:18:49;95457.78;;;15.02;83.73
2000;BME280;1001;48.87406500;9.59633600;2022-10-31T07:21:15;95456.41;;;15.21;81.20
2000;BME280;1001;48.87406500;9.59633600;2022-10-31T07:23:42;95459.69;;;15.33;80.25
2000;BME280;1001;48.87406500;9.59633600;2022-10-31T07:26:09;95467.94;;;15.41;79.72
2000;BME280;1001;48.87406500;9.59633600;2022-10-31T07:28:36;95464.38;;;15.52;79.71
2000;BME280;1001;48.87406500;9.59633600;2022-10-31T07:31:04;95469.97;;;15.56;79.39
2000;BME280;1001;48.87406500;9.59633600;2022-10-31T07:33:31;95471.41;;;15.69;78.97
2000;BME280;1001;48.87406500;9.59633600;2022-10-31T07:35:58;95473.59;;;15.82;78.10
2000;BME280;1001;48.87406500;9.59633600;2022-10-31T07:38:26;95475.06;;;15.99;76.74
2000;BME280;1001;48.87406500;9.59633600;2022-10-31T07:40:52;95468.75;;;16.05;76.32
2000;BME280;1001;48.87406500;9.59633600;2022-10-31T07:43:19;95472.28;;;16.16;74.71
2000;BME280;1001;48.87406500;9.59633600;2022-10-31T07:45:49;95477.88;;;16.24;75.52
2000;BME280;1001;48.87406500;9.59633600;2022-10-31T07:48:17;95472.84;;;16.28;75.22
2000;BME280;1001;48.87406500;9.59633600;2022-10-31T07:50:44;95471.03;;;16.28;75.30
2000;BME280;1001;48.87406500;9.59633600;2022-10-31T07:53:12;95475.34;;;16.40;74.67
2000;BME280;1001;48.87406500;9.59633600;2022-10-31T07:55:39;95478.13;;;16.23;76.17
2000;BME280;1001;48.87406500;9.59633600;2022-10-31T07:58:07;95477.13;;;16.34;75.28
2000;BME280;1001;48.87406500;9.59633600;2022-10-31T08:00:36;95467.63;;;16.33;74.86
2000;BME280;1001;48.87406500;9.59633600;2022-10-31T08:03:04;95468.13;;;16.25;75.98
2000;BME280;1001;48.87406500;9.59633600;2022-10-31T08:05:33;95470.50;;;16.26;76.53
2000;BME280;1001;48.87406500;9.59633600;2022-10-31T08:08:00;95463.69;;;16.35;76.22
2000;BME280;1001;48.87406500;9.59633600;2022-10-31T08:10:27;95459.66;;;16.28;75.14
2000;BME280;1001;48.87406500;9.59633600;2022-10-31T08:12:58;95455.78;;;16.41;75.37
2000;BME280;1001;48.87406500;9.59633600;2022-10-31T08:15:25;95457.09;;;16.38;76.43
2000;BME280;1001;48.87406500;9.59633600;2022-10-31T08:17:52;95464.53;;;16.46;74.44
2000;BME280;1001;48.87406500;9.59633600;2022-10-31T08:20:19;95463.06;;;16.60;74.75
2000;BME280;1001;48.87406500;9.59633600;2022-10-31T08:22:59;95463.84;;;16.66;75.28
2000;BME280;1001;48.87406500;9.59633600;2022-10-31T08:25:28;95467.88;;;16.78;73.61
2000;BME280;1001;48.87406500;9.59633600;2022-10-31T08:27:55;95460.50;;;16.85;75.12
2000;BME280;1001;48.87406500;9.59633600;2022-10-31T08:30:24;95461.59;;;16.84;74.08
2000;BME280;1001;48.87406500;9.59633600;2022-10-31T08:33:02;95458.97;;;16.99;75.36
2000;BME280;1001;48.87406500;9.59633600;2022-10-31T08:35:29;95459.78;;;17.05;75.59
2000;BME280;1001;48.87406500;9.59633600;2022-10-31T08:37:57;95454.28;;;17.17;74.94
2000;BME280;1001;48.87406500;9.59633600;2022-10-31T08:40:25;95452.44;;;17.27;74.56
2000;BME280;1001;48.87406500;9.59633600;2022-10-31T08:42:56;95458.50;;;17.23;72.83
2000;BME280;1001;48.87406500;9.59633600;2022-10-31T08:45:23;95453.75;;;17.15;71.99
2000;BME280;1001;48.87406500;9.59633600;2022-10-31T08:47:50;95453.00;;;17.34;74.25
2000;BME280;1001;48.87406500;9.59633600;2022-10-31T08:50:17;95454.59;;;17.45;75.32
2000;BME280;1001;48.87406500;9.59633600;2022-10-31T08:52:44;95452.47;;;17.47;73.02
2000;BME280;1001;48.87406500;9.59633600;2022-10-31T08:55:12;95454.38;;;17.67;70.30
2000;BME280;1001;48.87406500;9.59633600;2022-10-31T08:57:38;95455.69;;;17.75;73.30
2000;BME280;1001;48.87406500;9.59633600;2022-10-31T09:00:06;95461.78;;;18.00;74.03
2000;BME280;1001;48.87406500;9.59633600;2022-10-31T09:02:33;95458.06;;;18.06;70.35
2000;BME280;1001;48.87406500;9.59633600;2022-10-31T09:04:59;95460.19;;;18.09;70.59
2000;BME280;1001;48.87406500;9.59633600;2022-10-31T09:07:26;95461.22;;;18.23;71.14
2000;BME280;1001;48.87406500;9.59633600;2022-10-31T09:09:53;95458.59;;;18.28;70.01
2000;BME280;1001;48.87406500;9.59633600;2022-10-31T09:12:22;95455.66;;;18.35;68.48
2000;BME280;1001;48.87406500;9.59633600;2022-10-31T09:14:50;95458.56;;;18.49;71.23
2000;BME280;1001;48.87406500;9.59633600;2022-10-31T09:17:16;95456.44;;;18.46;70.49
2000;BME280;1001;48.87406500;9.59633600;2022-10-31T09:19:43;95456.91;;;18.68;71.65
2000;BME280;1001;48.87406500;9.59633600;2022-10-31T09:22:09;95450.44;;;18.94;70.29
2000;BME280;1001;48.87406500;9.59633600;2022-10-31T09:24:36;95439.53;;;19.06;69.92
2000;BME280;1001;48.87406500;9.59633600;2022-10-31T09:27:03;95448.56;;;19.05;67.96
2000;BME280;1001;48.87406500;9.59633600;2022-10-31T09:29:31;95443.50;;;19.08;69.07
2000;BME280;1001;48.87406500;9.59633600;2022-10-31T09:31:57;95448.63;;;19.43;66.89
2000;BME280;1001;48.87406500;9.59633600;2022-10-31T09:34:24;95449.59;;;19.57;66.31
2000;BME280;1001;48.87406500;9.59633600;2022-10-31T09:36:52;95442.97;;;19.55;63.27
2000;BME280;1001;48.87406500;9.59633600;2022-10-31T09:39:19;95448.72;;;19.67;65.15
2000;BME280;1001;48.87406500;9.59633600;2022-10-31T09:41:56;95447.41;;;19.64;64.48
2000;BME280;1001;48.87406500;9.59633600;2022-10-31T09:44:35;95446.41;;;19.55;65.96
2000;BME280;1001;48.87406500;9.59633600;2022-10-31T09:47:11;95443.06;;;19.45;64.18
2000;BME280;1001;48.87406500;9.59633600;2022-10-31T09:49:55;95440.06;;;19.56;64.66
2000;BME280;1001;48.87406500;9.59633600;2022-10-31T09:52:27;95438.63;;;19.69;63.79
2000;BME280;1001;48.87406500;9.59633600;2022-10-31T09:54:59;95439.66;;;19.73;61.66
2000;BME280;1001;48.87406500;9.59633600;2022-10-31T09:57:31;95436.53;;;19.95;64.57
2000;BME280;1001;48.87406500;9.59633600;2022-10-31T10:00:01;95442.50;;;19.82;61.93
2000;BME280;1001;48.87406500;9.59633600;2022-10-31T10:02:34;95439.25;;;19.90;61.35
2000;BME280;1001;48.87406500;9.59633600;2022-10-31T10:05:08;95437.66;;;19.89;59.99
2000;BME280;1001;48.87406500;9.59633600;2022-10-31T10:07:43;95439.06;;;19.81;59.97
2000;BME280;1001;48.87406500;9.59633600;2022-10-31T10:10:15;95436.09;;;20.16;60.25
2000;BME280;1001;48.87406500;9.59633600;2022-10-31T10:13:06;95433.88;;;19.95;63.76
2000;BME280;1001;48.87406500;9.59633600;2022-10-31T10:15:56;95433.25;;;20.08;60.18
2000;BME280;1001;48.87406500;9.59633600;2022-10-31T10:18:35;95438.94;;;19.96;59.06
2000;BME280;1001;48.87406500;9.59633600;2022-10-31T10:21:18;95432.38;;;20.17;57.54
2000;BME280;1001;48.87406500;9.59633600;2022-10-31T10:23:55;95434.22;;;20.17;58.10
2000;BME280;1001;48.87406500;9.59633600;2022-10-31T10:26:30;95440.50;;;20.31;57.09
2000;BME280;1001;48.87406500;9.59633600;2022-10-31T10:29:16;95431.22;;;20.52;57.33
2000;BME280;1001;48.87406500;9.59633600;2022-10-31T10:31:46;95428.13;;;20.45;58.01
2000;BME280;1001;48.87406500;9.59633600;2022-10-31T10:34:19;95429.66;;;20.27;60.44
2000;BME280;1001;48.87406500;9.59633600;2022-10-31T10:36:50;95423.16;;;20.39;58.59
2000;BME280;1001;48.87406500;9.59633600;2022-10-31T10:39:20;95430.56;;;20.42;60.27
2000;BME280;1001;48.87406500;9.59633600;2022-10-31T10:41:49;95428.97;;;20.64;59.66
2000;BME280;1001;48.87406500;9.59633600;2022-10-31T10:44:34;95427.72;;;20.57;59.67
2000;BME280;1001;48.87406500;9.59633600;2022-10-31T10:47:22;95429.00;;;20.83;60.55
2000;BME280;1001;48.87406500;9.59633600;2022-10-31T10:50:10;95426.75;;;20.95;58.81
2000;BME280;1001;48.87406500;9.59633600;2022-10-31T10:52:44;95429.34;;;21.00;57.87
2000;BME280;1001;48.87406500;9.59633600;2022-10-31T10:55:20;95414.59;;;21.13;58.43
2000;BME280;1001;48.87406500;9.59633600;2022-10-31T10:57:55;95420.84;;;21.22;60.12
2000;BME280;1001;48.87406500;9.59633600;2022-10-31T11:00:24;95412.84;;;21.22;60.77
2000;BME280;1001;48.87406500;9.59633600;2022-10-31T11:02:53;95406.09;;;21.29;58.15
2000;BME280;1001;48.87406500;9.59633600;2022-10-31T11:05:25;95401.66;;;21.25;58.80
2000;BME280;1001;48.87406500;9.59633600;2022-10-31T11:07:52;95410.50;;;21.39;59.05
2000;BME280;1001;48.87406500;9.59633600;2022-10-31T11:10:19;95412.22;;;21.48;59.58
2000;BME280;1001;48.87406500;9.59633600;2022-10-31T11:12:59;95401.22;;;21.18;60.38
2000;BME280;1001;48.87406500;9.59633600;2022-10-31T11:15:27;95395.81;;;21.23;62.57
2000;BME280;1001;48.87406500;9.59633600;2022-10-31T11:17:56;95388.38;;;21.01;60.55
2000;BME280;1001;48.87406500;9.59633600;2022-10-31T11:20:27;95379.75;;;20.90;62.95
2000;BME280;1001;48.87406500;9.59633600;2022-10-31T11:23:02;95383.34;;;20.99;60.69
2000;BME280;1001;48.87406500;9.59633600;2022-10-31T11:25:30;95382.47;;;20.85;62.19
2000;BME280;1001;48.87406500;9.59633600;2022-10-31T11:28:00;95383.13;;;20.96;61.34
2000;BME280;1001;48.87406500;9.59633600;2022-10-31T11:30:28;95374.69;;;21.13;62.37
2000;BME280;1001;48.87406500;9.59633600;2022-10-31T11:32:56;95380.34;;;21.06;60.59
2000;BME280;1001;48.87406500;9.59633600;2022-10-31T11:35:24;95384.47;;;21.17;60.28
2000;BME280;1001;48.87406500;9.59633600;2022-10-31T11:37:53;95384.22;;;21.32;59.45
2000;BME280;1001;48.87406500;9.59633600;2022-10-31T11:40:22;95375.25;;;21.28;57.97
2000;BME280;1001;48.87406500;9.59633600;2022-10-31T11:42:52;95372.59;;;21.28;60.42
2000;BME280;1001;48.87406500;9.59633600;2022-10-31T11:45:28;95370.72;;;21.29;59.04
2000;BME280;1001;48.87406500;9.59633600;2022-10-31T11:47:57;95362.41;;;21.49;58.90
2000;BME280;1001;48.87406500;9.59633600;2022-10-31T11:50:29;95362.06;;;21.55;60.41
2000;BME280;1001;48.87406500;9.59633600;2022-10-31T11:52:58;95355.88;;;21.60;60.47
2000;BME280;1001;48.87406500;9.59633600;2022-10-31T11:55:35;95358.13;;;21.85;59.17
2000;BME280;1001;48.87406500;9.59633600;2022-10-31T11:58:03;95351.56;;;21.78;61.05
2000;BME280;1001;48.87406500;9.59633600;2022-10-31T12:00:31;95347.31;;;21.95;59.96